»·PEaware :: QXE2365 KPUW-KALW

QXE2365 :: KPUW-KALW

FLIGHT INFORMATION

Flight Status: Arrived
Operator:
Horizon Air
More flights by this operator :: More flights under this callsign
Pilot: Adlai G. (28854)
Aircraft: DEHAVILLAND DASH 8 400
(DH8D)
More flights by this aircraft type
Origin: KPUW Pullman/Moscow Regl
United States
Destination: KALW Walla Walla Regl
United States
More flights between these airports :: More routes between these airports
Route: PUW V536 ALW
File this flight plan on PilotEdge
Remarks: Continues as 2365 ALW-SEA
Altitude:
(Current/Filed)
8,000ft
Speed:
(Current/Filed)
337kts
Departed: 18-May-20 04:47 PM
Arrived: 18-May-20 05:05 PM
Distance/Time
Traveled:
63nm/0:18
Distance/Time
To Go:
Arrived

Flight Plot

Page will automatically refresh every two minutes.

Flight plan parsing failed; only flown route is shown


Map Options




Map Legend


Flown Route
Filed Route
Departure Airport
Arrival Airport
Navaid (VOR, NDB)
Fix

Horizontal Profiles

Position Reports

Time Latitude Longitude Heading Altitude Ground
Speed
18-May-20 16:10 46.745401 -117.107448 340 2562ft 0kts
18-May-20 16:11 46.745401 -117.107448 340 2562ft 0kts
18-May-20 16:12 46.745401 -117.107448 340 2562ft 0kts
18-May-20 16:13 46.745401 -117.107448 340 2562ft 0kts
18-May-20 16:14 46.745401 -117.107448 340 2562ft 0kts
18-May-20 16:15 46.745401 -117.107448 340 2562ft 0kts
18-May-20 16:16 46.745401 -117.107448 340 2562ft 0kts
18-May-20 16:17 46.745401 -117.107448 340 2562ft 0kts
18-May-20 16:18 46.745401 -117.107448 340 2562ft 0kts
18-May-20 16:19 46.745401 -117.107448 340 2562ft 0kts
18-May-20 16:20 46.745401 -117.107448 340 2562ft 0kts
18-May-20 16:21 46.745401 -117.107448 340 2562ft 0kts
18-May-20 16:22 46.745401 -117.107448 340 2562ft 0kts
18-May-20 16:23 46.745401 -117.107448 340 2562ft 0kts
18-May-20 16:24 46.745401 -117.107448 340 2562ft 0kts
18-May-20 16:25 46.745401 -117.107448 340 2562ft 0kts
18-May-20 16:27 46.745401 -117.107448 340 2562ft 0kts
18-May-20 16:28 46.745401 -117.107448 340 2562ft 0kts
18-May-20 16:29 46.745401 -117.107448 340 2562ft 0kts
18-May-20 16:30 46.745401 -117.107448 340 2562ft 0kts
18-May-20 16:31 46.745401 -117.107448 340 2562ft 0kts
18-May-20 16:32 46.745401 -117.107448 340 2562ft 0kts
18-May-20 16:33 46.745401 -117.107448 340 2562ft 0kts
18-May-20 16:34 46.745401 -117.107448 340 2562ft 0kts
18-May-20 16:35 46.745401 -117.107448 340 2562ft 0kts
18-May-20 16:36 46.745401 -117.107448 340 2562ft 0kts
18-May-20 16:37 46.745401 -117.107448 340 2562ft 0kts
18-May-20 16:38 46.744938 -117.107525 59 2562ft 3kts
18-May-20 16:39 46.744870 -117.107763 70 2562ft 0kts
18-May-20 16:40 46.744870 -117.107763 70 2562ft 0kts
18-May-20 16:41 46.744870 -117.107763 70 2562ft 0kts
18-May-20 16:42 46.744922 -117.107543 70 2562ft 4kts
18-May-20 16:42 46.745875 -117.103570 70 2562ft 18kts
18-May-20 16:44 46.747250 -117.097941 71 2562ft 0kts
18-May-20 16:45 46.747251 -117.097936 71 2562ft 0kts
18-May-20 16:45 46.747239 -117.097588 132 2562ft 4kts
18-May-20 16:46 46.742720 -117.114168 249 2636ft 147kts
18-May-20 16:47 46.714125 -117.169015 223 5256ft 204kts
18-May-20 16:48 46.668530 -117.235196 228 7564ft 253kts
18-May-20 16:49 46.621946 -117.319426 230 7986ft 269kts
18-May-20 16:50 46.575929 -117.405328 230 7968ft 272kts
18-May-20 16:51 46.529172 -117.491479 230 7980ft 272kts
18-May-20 16:52 46.482770 -117.576742 231 7976ft 267kts
18-May-20 16:53 46.436888 -117.660808 231 7980ft 258kts
18-May-20 16:54 46.393668 -117.739533 230 7598ft 245kts
18-May-20 16:55 46.351064 -117.817071 229 7102ft 249kts
18-May-20 16:56 46.324961 -117.906974 279 6510ft 259kts
18-May-20 16:57 46.324923 -118.007752 247 6163ft 243kts
18-May-20 16:58 46.282315 -118.079528 220 5508ft 233kts
18-May-20 16:59 46.236390 -118.133067 214 4486ft 202kts
18-May-20 17:00 46.195106 -118.176464 214 3480ft 153kts
18-May-20 17:01 46.164925 -118.208019 213 2767ft 127kts
18-May-20 17:02 46.136131 -118.238531 212 2115ft 130kts
18-May-20 17:03 46.107853 -118.267925 212 1427ft 120kts
18-May-20 17:04 46.090609 -118.285286 129 1198ft 3kts
18-May-20 17:05 46.089694 -118.284685 218 1198ft 12kts
18-May-20 17:06 46.088160 -118.285052 211 1198ft 0kts
18-May-20 17:07 46.088160 -118.285052 211 1198ft 0kts
18-May-20 17:08 46.088160 -118.285052 211 1198ft 0kts
18-May-20 17:09 46.088160 -118.285052 211 1198ft 0kts
18-May-20 17:10 46.088160 -118.285052 211 1198ft 0kts

Navigation Log

Ident Type
Flight plan parsing failed, navigation log unavailable